sensor_id;sensor_type;location;lat;lon;timestamp;P1;durP1;ratioP1;P2;durP2;ratioP2
17818;SDS011;9034;50.284;19.310;2022-12-07T00:01:03;34.75;;;19.35;;
17818;SDS011;9034;50.284;19.310;2022-12-07T00:02:08;34.50;;;19.55;;
17818;SDS011;9034;50.284;19.310;2022-12-07T00:03:12;32.00;;;18.17;;
17818;SDS011;9034;50.284;19.310;2022-12-07T00:04:15;34.10;;;19.92;;
17818;SDS011;9034;50.284;19.310;2022-12-07T00:05:20;29.80;;;18.83;;
17818;SDS011;9034;50.284;19.310;2022-12-07T00:06:23;33.15;;;20.98;;
17818;SDS011;9034;50.284;19.310;2022-12-07T00:07:26;33.88;;;21.10;;
17818;SDS011;9034;50.284;19.310;2022-12-07T00:08:29;33.80;;;19.85;;
17818;SDS011;9034;50.284;19.310;2022-12-07T00:09:33;30.65;;;19.67;;
17818;SDS011;9034;50.284;19.310;2022-12-07T00:10:37;36.58;;;20.63;;
17818;SDS011;9034;50.284;19.310;2022-12-07T00:11:40;36.17;;;21.05;;
17818;SDS011;9034;50.284;19.310;2022-12-07T00:12:44;34.80;;;21.23;;
17818;SDS011;9034;50.284;19.310;2022-12-07T00:13:47;27.00;;;18.00;;
17818;SDS011;9034;50.284;19.310;2022-12-07T00:14:56;28.98;;;17.05;;
17818;SDS011;9034;50.284;19.310;2022-12-07T00:16:00;26.90;;;16.95;;
17818;SDS011;9034;50.284;19.310;2022-12-07T00:17:05;29.58;;;17.73;;
17818;SDS011;9034;50.284;19.310;2022-12-07T00:18:07;29.10;;;18.15;;
17818;SDS011;9034;50.284;19.310;2022-12-07T00:19:12;32.45;;;19.73;;
17818;SDS011;9034;50.284;19.310;2022-12-07T00:20:16;29.65;;;18.55;;
17818;SDS011;9034;50.284;19.310;2022-12-07T00:21:20;28.50;;;17.05;;
17818;SDS011;9034;50.284;19.310;2022-12-07T00:22:24;33.00;;;19.73;;
17818;SDS011;9034;50.284;19.310;2022-12-07T00:23:28;34.90;;;20.27;;
17818;SDS011;9034;50.284;19.310;2022-12-07T00:24:30;26.52;;;17.25;;
17818;SDS011;9034;50.284;19.310;2022-12-07T00:25:34;25.38;;;16.52;;
17818;SDS011;9034;50.284;19.310;2022-12-07T00:26:37;28.42;;;18.08;;
17818;SDS011;9034;50.284;19.310;2022-12-07T00:27:42;27.10;;;17.27;;
17818;SDS011;9034;50.284;19.310;2022-12-07T00:28:45;28.42;;;18.23;;
17818;SDS011;9034;50.284;19.310;2022-12-07T00:29:49;25.98;;;17.10;;
17818;SDS011;9034;50.284;19.310;2022-12-07T00:30:53;30.95;;;18.52;;
17818;SDS011;9034;50.284;19.310;2022-12-07T00:32:03;27.92;;;17.40;;
17818;SDS011;9034;50.284;19.310;2022-12-07T00:33:07;30.77;;;17.58;;
17818;SDS011;9034;50.284;19.310;2022-12-07T00:34:11;27.70;;;17.73;;
17818;SDS011;9034;50.284;19.310;2022-12-07T00:35:16;30.80;;;17.15;;
17818;SDS011;9034;50.284;19.310;2022-12-07T00:36:19;30.48;;;19.25;;
17818;SDS011;9034;50.284;19.310;2022-12-07T00:37:28;25.98;;;16.58;;
17818;SDS011;9034;50.284;19.310;2022-12-07T00:38:31;32.78;;;19.05;;
17818;SDS011;9034;50.284;19.310;2022-12-07T00:39:35;23.60;;;15.43;;
17818;SDS011;9034;50.284;19.310;2022-12-07T00:40:39;26.63;;;16.42;;
17818;SDS011;9034;50.284;19.310;2022-12-07T00:41:42;27.23;;;17.45;;
17818;SDS011;9034;50.284;19.310;2022-12-07T00:42:46;27.80;;;17.75;;
17818;SDS011;9034;50.284;19.310;2022-12-07T00:43:48;28.23;;;17.80;;
17818;SDS011;9034;50.284;19.310;2022-12-07T00:44:53;25.90;;;17.25;;
17818;SDS011;9034;50.284;19.310;2022-12-07T00:45:57;25.98;;;16.42;;
17818;SDS011;9034;50.284;19.310;2022-12-07T00:47:01;26.20;;;16.17;;
17818;SDS011;9034;50.284;19.310;2022-12-07T00:48:04;24.95;;;15.88;;
17818;SDS011;9034;50.284;19.310;2022-12-07T00:49:08;24.42;;;15.82;;
17818;SDS011;9034;50.284;19.310;2022-12-07T00:50:10;27.55;;;16.80;;
17818;SDS011;9034;50.284;19.310;2022-12-07T00:51:15;22.83;;;15.25;;
17818;SDS011;9034;50.284;19.310;2022-12-07T00:52:19;24.58;;;15.27;;
17818;SDS011;9034;50.284;19.310;2022-12-07T00:53:23;28.10;;;16.50;;
17818;SDS011;9034;50.284;19.310;2022-12-07T00:54:25;28.45;;;16.67;;
17818;SDS011;9034;50.284;19.310;2022-12-07T00:55:32;23.90;;;15.25;;
17818;SDS011;9034;50.284;19.310;2022-12-07T00:56:35;26.85;;;16.05;;
17818;SDS011;9034;50.284;19.310;2022-12-07T00:57:39;25.00;;;15.55;;
17818;SDS011;9034;50.284;19.310;2022-12-07T00:58:41;26.23;;;16.35;;
17818;SDS011;9034;50.284;19.310;2022-12-07T00:59:45;21.33;;;15.02;;
17818;SDS011;9034;50.284;19.310;2022-12-07T01:00:48;23.80;;;15.73;;
17818;SDS011;9034;50.284;19.310;2022-12-07T01:01:53;25.48;;;15.45;;
17818;SDS011;9034;50.284;19.310;2022-12-07T01:02:56;22.50;;;15.02;;
17818;SDS011;9034;50.284;19.310;2022-12-07T01:04:00;24.00;;;15.65;;
17818;SDS011;9034;50.284;19.310;2022-12-07T01:05:03;28.40;;;15.27;;
17818;SDS011;9034;50.284;19.310;2022-12-07T01:06:07;28.35;;;16.33;;
17818;SDS011;9034;50.284;19.310;2022-12-07T01:07:10;25.42;;;15.65;;
17818;SDS011;9034;50.284;19.310;2022-12-07T01:08:14;27.02;;;15.95;;
17818;SDS011;9034;50.284;19.310;2022-12-07T01:09:17;27.80;;;14.63;;
17818;SDS011;9034;50.284;19.310;2022-12-07T01:10:20;26.13;;;14.82;;
17818;SDS011;9034;50.284;19.310;2022-12-07T01:11:25;27.20;;;16.60;;
17818;SDS011;9034;50.284;19.310;2022-12-07T01:12:30;25.17;;;14.18;;
17818;SDS011;9034;50.284;19.310;2022-12-07T01:13:33;25.92;;;15.70;;
17818;SDS011;9034;50.284;19.310;2022-12-07T01:14:37;25.02;;;15.82;;
17818;SDS011;9034;50.284;19.310;2022-12-07T01:15:40;29.42;;;16.08;;
17818;SDS011;9034;50.284;19.310;2022-12-07T01:16:44;24.73;;;14.82;;
17818;SDS011;9034;50.284;19.310;2022-12-07T01:17:48;25.92;;;14.85;;
17818;SDS011;9034;50.284;19.310;2022-12-07T01:18:52;25.40;;;15.52;;
17818;SDS011;9034;50.284;19.310;2022-12-07T01:19:56;26.17;;;16.23;;
17818;SDS011;9034;50.284;19.310;2022-12-07T01:21:01;27.67;;;15.98;;
17818;SDS011;9034;50.284;19.310;2022-12-07T01:22:05;25.88;;;15.57;;
17818;SDS011;9034;50.284;19.310;2022-12-07T01:23:09;28.60;;;16.88;;
17818;SDS011;9034;50.284;19.310;2022-12-07T01:24:11;29.45;;;16.65;;
17818;SDS011;9034;50.284;19.310;2022-12-07T01:25:15;25.63;;;15.40;;
17818;SDS011;9034;50.284;19.310;2022-12-07T01:26:19;23.00;;;15.82;;
17818;SDS011;9034;50.284;19.310;2022-12-07T01:27:23;27.77;;;15.90;;
17818;SDS011;9034;50.284;19.310;2022-12-07T01:28:26;29.75;;;17.08;;
17818;SDS011;9034;50.284;19.310;2022-12-07T01:29:30;30.05;;;17.33;;
17818;SDS011;9034;50.284;19.310;2022-12-07T01:30:33;27.63;;;16.88;;
17818;SDS011;9034;50.284;19.310;2022-12-07T01:31:37;29.70;;;17.25;;
17818;SDS011;9034;50.284;19.310;2022-12-07T01:32:40;28.08;;;16.75;;
17818;SDS011;9034;50.284;19.310;2022-12-07T01:33:47;27.73;;;16.52;;
17818;SDS011;9034;50.284;19.310;2022-12-07T01:34:51;27.25;;;17.08;;
17818;SDS011;9034;50.284;19.310;2022-12-07T01:35:54;29.55;;;17.15;;
17818;SDS011;9034;50.284;19.310;2022-12-07T01:36:58;32.55;;;18.33;;
17818;SDS011;9034;50.284;19.310;2022-12-07T01:38:01;31.52;;;18.05;;
17818;SDS011;9034;50.284;19.310;2022-12-07T01:39:05;30.23;;;16.45;;
17818;SDS011;9034;50.284;19.310;2022-12-07T01:40:10;31.10;;;17.67;;
17818;SDS011;9034;50.284;19.310;2022-12-07T01:41:13;31.38;;;17.42;;
17818;SDS011;9034;50.284;19.310;2022-12-07T01:42:18;33.03;;;17.48;;
17818;SDS011;9034;50.284;19.310;2022-12-07T01:43:21;32.55;;;17.15;;
17818;SDS011;9034;50.284;19.310;2022-12-07T01:44:27;25.63;;;16.00;;
17818;SDS011;9034;50.284;19.310;2022-12-07T01:45:38;27.00;;;16.77;;
17818;SDS011;9034;50.284;19.310;2022-12-07T01:46:44;33.92;;;18.95;;
17818;SDS011;9034;50.284;19.310;2022-12-07T01:47:48;30.85;;;18.40;;
17818;SDS011;9034;50.284;19.310;2022-12-07T01:48:57;30.20;;;16.92;;
17818;SDS011;9034;50.284;19.310;2022-12-07T01:49:59;31.45;;;17.77;;
17818;SDS011;9034;50.284;19.310;2022-12-07T01:51:04;32.78;;;18.38;;
17818;SDS011;9034;50.284;19.310;2022-12-07T01:52:12;34.45;;;18.52;;
17818;SDS011;9034;50.284;19.310;2022-12-07T01:53:18;30.08;;;17.25;;
17818;SDS011;9034;50.284;19.310;2022-12-07T01:54:21;33.63;;;17.85;;
17818;SDS011;9034;50.284;19.310;2022-12-07T01:55:25;37.53;;;20.73;;
17818;SDS011;9034;50.284;19.310;2022-12-07T01:56:28;42.58;;;20.45;;
17818;SDS011;9034;50.284;19.310;2022-12-07T01:57:33;42.60;;;20.00;;
17818;SDS011;9034;50.284;19.310;2022-12-07T01:58:38;42.85;;;23.13;;
17818;SDS011;9034;50.284;19.310;2022-12-07T01:59:42;32.40;;;18.70;;
17818;SDS011;9034;50.284;19.310;2022-12-07T02:00:45;36.42;;;19.23;;
17818;SDS011;9034;50.284;19.310;2022-12-07T02:01:49;31.65;;;17.00;;
17818;SDS011;9034;50.284;19.310;2022-12-07T02:02:53;37.63;;;19.90;;
17818;SDS011;9034;50.284;19.310;2022-12-07T02:04:00;42.33;;;21.92;;
17818;SDS011;9034;50.284;19.310;2022-12-07T02:05:04;37.15;;;19.90;;
17818;SDS011;9034;50.284;19.310;2022-12-07T02:06:09;37.17;;;18.50;;
17818;SDS011;9034;50.284;19.310;2022-12-07T02:07:13;48.72;;;22.40;;
17818;SDS011;9034;50.284;19.310;2022-12-07T02:08:17;45.80;;;22.90;;
17818;SDS011;9034;50.284;19.310;2022-12-07T02:09:21;39.60;;;21.17;;
17818;SDS011;9034;50.284;19.310;2022-12-07T02:10:25;36.30;;;19.90;;
17818;SDS011;9034;50.284;19.310;2022-12-07T02:11:28;49.30;;;21.75;;
17818;SDS011;9034;50.284;19.310;2022-12-07T02:12:32;53.63;;;22.52;;
17818;SDS011;9034;50.284;19.310;2022-12-07T02:13:35;54.90;;;24.48;;
17818;SDS011;9034;50.284;19.310;2022-12-07T02:14:41;49.58;;;23.42;;
17818;SDS011;9034;50.284;19.310;2022-12-07T02:15:46;41.67;;;23.58;;
17818;SDS011;9034;50.284;19.310;2022-12-07T02:17:03;45.88;;;23.88;;
17818;SDS011;9034;50.284;19.310;2022-12-07T02:18:13;49.55;;;25.85;;
17818;SDS011;9034;50.284;19.310;2022-12-07T02:19:36;48.50;;;24.77;;
17818;SDS011;9034;50.284;19.310;2022-12-07T02:20:50;49.83;;;24.27;;
17818;SDS011;9034;50.284;19.310;2022-12-07T02:21:58;47.17;;;25.67;;
17818;SDS011;9034;50.284;19.310;2022-12-07T02:24:42;49.53;;;23.17;;
17818;SDS011;9034;50.284;19.310;2022-12-07T02:25:55;58.30;;;27.52;;
17818;SDS011;9034;50.284;19.310;2022-12-07T02:27:28;50.13;;;27.13;;
17818;SDS011;9034;50.284;19.310;2022-12-07T02:28:46;55.95;;;26.00;;
17818;SDS011;9034;50.284;19.310;2022-12-07T02:29:55;41.42;;;23.30;;
17818;SDS011;9034;50.284;19.310;2022-12-07T02:31:04;48.63;;;27.02;;
17818;SDS011;9034;50.284;19.310;2022-12-07T02:32:11;52.60;;;29.13;;
17818;SDS011;9034;50.284;19.310;2022-12-07T02:33:18;53.20;;;28.65;;
17818;SDS011;9034;50.284;19.310;2022-12-07T02:34:26;50.22;;;29.20;;
17818;SDS011;9034;50.284;19.310;2022-12-07T02:35:35;54.25;;;25.48;;
17818;SDS011;9034;50.284;19.310;2022-12-07T02:36:42;49.42;;;25.70;;
17818;SDS011;9034;50.284;19.310;2022-12-07T02:37:51;55.50;;;28.15;;
17818;SDS011;9034;50.284;19.310;2022-12-07T02:38:59;56.45;;;28.98;;
17818;SDS011;9034;50.284;19.310;2022-12-07T02:40:05;63.00;;;31.58;;
17818;SDS011;9034;50.284;19.310;2022-12-07T02:41:15;64.22;;;30.92;;
17818;SDS011;9034;50.284;19.310;2022-12-07T02:42:22;60.10;;;30.63;;
17818;SDS011;9034;50.284;19.310;2022-12-07T02:43:28;59.70;;;29.70;;
17818;SDS011;9034;50.284;19.310;2022-12-07T02:44:34;62.38;;;33.58;;
17818;SDS011;9034;50.284;19.310;2022-12-07T02:45:39;74.78;;;33.20;;
17818;SDS011;9034;50.284;19.310;2022-12-07T02:46:44;63.00;;;31.38;;
17818;SDS011;9034;50.284;19.310;2022-12-07T02:47:51;67.85;;;32.13;;
17818;SDS011;9034;50.284;19.310;2022-12-07T02:48:54;67.28;;;31.70;;
17818;SDS011;9034;50.284;19.310;2022-12-07T02:49:58;72.97;;;33.90;;
17818;SDS011;9034;50.284;19.310;2022-12-07T02:51:01;67.90;;;31.20;;
17818;SDS011;9034;50.284;19.310;2022-12-07T02:52:05;88.50;;;36.08;;
17818;SDS011;9034;50.284;19.310;2022-12-07T02:54:34;66.72;;;31.70;;
17818;SDS011;9034;50.284;19.310;2022-12-07T02:55:37;64.75;;;29.60;;
17818;SDS011;9034;50.284;19.310;2022-12-07T02:56:44;76.15;;;33.58;;
17818;SDS011;9034;50.284;19.310;2022-12-07T02:57:55;86.10;;;34.00;;
17818;SDS011;9034;50.284;19.310;2022-12-07T02:59:10;64.97;;;30.38;;
17818;SDS011;9034;50.284;19.310;2022-12-07T03:00:20;73.20;;;33.65;;
17818;SDS011;9034;50.284;19.310;2022-12-07T03:01:26;95.68;;;41.95;;
17818;SDS011;9034;50.284;19.310;2022-12-07T03:02:35;65.00;;;35.25;;
17818;SDS011;9034;50.284;19.310;2022-12-07T03:03:42;85.60;;;36.67;;
17818;SDS011;9034;50.284;19.310;2022-12-07T03:04:52;75.88;;;36.78;;
17818;SDS011;9034;50.284;19.310;2022-12-07T03:06:07;70.43;;;33.92;;
17818;SDS011;9034;50.284;19.310;2022-12-07T03:07:16;78.05;;;31.13;;
17818;SDS011;9034;50.284;19.310;2022-12-07T03:08:24;69.15;;;32.25;;
17818;SDS011;9034;50.284;19.310;2022-12-07T03:09:35;85.65;;;33.60;;
17818;SDS011;9034;50.284;19.310;2022-12-07T03:10:40;69.40;;;30.90;;
17818;SDS011;9034;50.284;19.310;2022-12-07T03:11:48;81.53;;;33.00;;
17818;SDS011;9034;50.284;19.310;2022-12-07T03:12:57;67.18;;;31.63;;
17818;SDS011;9034;50.284;19.310;2022-12-07T03:14:06;71.72;;;34.33;;
17818;SDS011;9034;50.284;19.310;2022-12-07T03:15:16;84.28;;;33.08;;
17818;SDS011;9034;50.284;19.310;2022-12-07T03:16:23;84.85;;;34.25;;
17818;SDS011;9034;50.284;19.310;2022-12-07T03:17:29;89.70;;;35.38;;
17818;SDS011;9034;50.284;19.310;2022-12-07T03:18:35;86.15;;;34.75;;
17818;SDS011;9034;50.284;19.310;2022-12-07T03:19:41;83.20;;;35.50;;
17818;SDS011;9034;50.284;19.310;2022-12-07T03:20:45;79.10;;;33.75;;
17818;SDS011;9034;50.284;19.310;2022-12-07T03:21:51;88.85;;;36.60;;
17818;SDS011;9034;50.284;19.310;2022-12-07T03:22:57;87.00;;;36.45;;
17818;SDS011;9034;50.284;19.310;2022-12-07T03:24:03;74.57;;;33.67;;
17818;SDS011;9034;50.284;19.310;2022-12-07T03:25:10;68.97;;;33.47;;
17818;SDS011;9034;50.284;19.310;2022-12-07T03:26:15;79.28;;;38.10;;
17818;SDS011;9034;50.284;19.310;2022-12-07T03:27:20;86.25;;;37.40;;
17818;SDS011;9034;50.284;19.310;2022-12-07T03:28:26;84.72;;;40.22;;
17818;SDS011;9034;50.284;19.310;2022-12-07T03:29:33;79.60;;;35.38;;
17818;SDS011;9034;50.284;19.310;2022-12-07T03:30:40;79.47;;;35.78;;
17818;SDS011;9034;50.284;19.310;2022-12-07T03:31:46;85.40;;;38.78;;
17818;SDS011;9034;50.284;19.310;2022-12-07T03:32:53;61.35;;;30.13;;
17818;SDS011;9034;50.284;19.310;2022-12-07T03:34:01;62.17;;;29.60;;
17818;SDS011;9034;50.284;19.310;2022-12-07T03:35:11;58.13;;;29.05;;
17818;SDS011;9034;50.284;19.310;2022-12-07T03:36:20;54.05;;;26.58;;
17818;SDS011;9034;50.284;19.310;2022-12-07T03:37:26;50.55;;;26.90;;
17818;SDS011;9034;50.284;19.310;2022-12-07T03:38:34;51.80;;;27.50;;
17818;SDS011;9034;50.284;19.310;2022-12-07T03:39:41;56.60;;;27.73;;
17818;SDS011;9034;50.284;19.310;2022-12-07T03:40:48;60.90;;;27.92;;
17818;SDS011;9034;50.284;19.310;2022-12-07T03:41:54;51.70;;;26.95;;
17818;SDS011;9034;50.284;19.310;2022-12-07T03:42:58;59.17;;;28.58;;
17818;SDS011;9034;50.284;19.310;2022-12-07T03:44:03;53.60;;;28.88;;
17818;SDS011;9034;50.284;19.310;2022-12-07T03:45:09;48.60;;;27.40;;
17818;SDS011;9034;50.284;19.310;2022-12-07T03:46:15;55.10;;;28.90;;
17818;SDS011;9034;50.284;19.310;2022-12-07T03:47:24;54.33;;;27.88;;
17818;SDS011;9034;50.284;19.310;2022-12-07T03:48:31;60.97;;;29.00;;
17818;SDS011;9034;50.284;19.310;2022-12-07T03:49:37;54.33;;;28.92;;
17818;SDS011;9034;50.284;19.310;2022-12-07T03:50:46;65.13;;;31.23;;
17818;SDS011;9034;50.284;19.310;2022-12-07T03:51:54;52.33;;;28.08;;
17818;SDS011;9034;50.284;19.310;2022-12-07T03:53:02;53.05;;;25.58;;
17818;SDS011;9034;50.284;19.310;2022-12-07T03:54:08;52.00;;;24.95;;
17818;SDS011;9034;50.284;19.310;2022-12-07T03:55:14;53.20;;;27.48;;
17818;SDS011;9034;50.284;19.310;2022-12-07T03:56:19;50.33;;;26.05;;
17818;SDS011;9034;50.284;19.310;2022-12-07T03:57:24;51.55;;;24.50;;
17818;SDS011;9034;50.284;19.310;2022-12-07T03:58:27;48.97;;;26.58;;
17818;SDS011;9034;50.284;19.310;2022-12-07T03:59:32;49.92;;;25.75;;
17818;SDS011;9034;50.284;19.310;2022-12-07T04:00:35;49.17;;;26.25;;
17818;SDS011;9034;50.284;19.310;2022-12-07T04:01:40;49.45;;;25.38;;
17818;SDS011;9034;50.284;19.310;2022-12-07T04:02:44;49.25;;;26.48;;
17818;SDS011;9034;50.284;19.310;2022-12-07T04:03:47;55.38;;;27.38;;
17818;SDS011;9034;50.284;19.310;2022-12-07T04:04:50;46.25;;;24.40;;
17818;SDS011;9034;50.284;19.310;2022-12-07T04:05:54;55.30;;;28.40;;
17818;SDS011;9034;50.284;19.310;2022-12-07T04:06:57;54.30;;;31.15;;
17818;SDS011;9034;50.284;19.310;2022-12-07T04:08:01;55.30;;;28.58;;
17818;SDS011;9034;50.284;19.310;2022-12-07T04:09:03;49.40;;;28.88;;
17818;SDS011;9034;50.284;19.310;2022-12-07T04:10:07;55.92;;;28.23;;
17818;SDS011;9034;50.284;19.310;2022-12-07T04:11:12;57.60;;;28.35;;
17818;SDS011;9034;50.284;19.310;2022-12-07T04:12:14;54.22;;;27.95;;
17818;SDS011;9034;50.284;19.310;2022-12-07T04:13:18;55.20;;;27.95;;
17818;SDS011;9034;50.284;19.310;2022-12-07T04:14:21;54.47;;;28.25;;
17818;SDS011;9034;50.284;19.310;2022-12-07T04:15:25;49.95;;;27.23;;
17818;SDS011;9034;50.284;19.310;2022-12-07T04:16:27;49.42;;;27.23;;
17818;SDS011;9034;50.284;19.310;2022-12-07T04:17:33;49.70;;;27.60;;
17818;SDS011;9034;50.284;19.310;2022-12-07T04:18:35;55.35;;;27.40;;
17818;SDS011;9034;50.284;19.310;2022-12-07T04:19:39;57.45;;;27.63;;
17818;SDS011;9034;50.284;19.310;2022-12-07T04:20:42;55.20;;;27.00;;
17818;SDS011;9034;50.284;19.310;2022-12-07T04:21:46;54.03;;;27.65;;
17818;SDS011;9034;50.284;19.310;2022-12-07T04:22:49;51.00;;;26.10;;
17818;SDS011;9034;50.284;19.310;2022-12-07T04:23:53;59.80;;;29.42;;
17818;SDS011;9034;50.284;19.310;2022-12-07T04:24:55;54.95;;;27.67;;
17818;SDS011;9034;50.284;19.310;2022-12-07T04:25:59;51.72;;;27.33;;
17818;SDS011;9034;50.284;19.310;2022-12-07T04:27:02;53.58;;;27.23;;
17818;SDS011;9034;50.284;19.310;2022-12-07T04:28:06;57.28;;;28.85;;
17818;SDS011;9034;50.284;19.310;2022-12-07T04:29:09;63.30;;;30.02;;
17818;SDS011;9034;50.284;19.310;2022-12-07T04:30:13;61.92;;;30.88;;
17818;SDS011;9034;50.284;19.310;2022-12-07T04:31:15;70.47;;;32.75;;
17818;SDS011;9034;50.284;19.310;2022-12-07T04:32:19;61.60;;;31.08;;
17818;SDS011;9034;50.284;19.310;2022-12-07T04:33:23;64.32;;;34.35;;
17818;SDS011;9034;50.284;19.310;2022-12-07T04:34:27;60.20;;;31.13;;
17818;SDS011;9034;50.284;19.310;2022-12-07T04:35:30;54.42;;;27.52;;
17818;SDS011;9034;50.284;19.310;2022-12-07T04:36:34;67.15;;;32.42;;
17818;SDS011;9034;50.284;19.310;2022-12-07T04:37:36;67.85;;;33.08;;
17818;SDS011;9034;50.284;19.310;2022-12-07T04:38:41;64.03;;;29.90;;
17818;SDS011;9034;50.284;19.310;2022-12-07T04:39:44;57.90;;;30.27;;
17818;SDS011;9034;50.284;19.310;2022-12-07T04:40:48;64.38;;;29.95;;
17818;SDS011;9034;50.284;19.310;2022-12-07T04:41:50;69.70;;;31.80;;
17818;SDS011;9034;50.284;19.310;2022-12-07T04:42:54;60.50;;;30.00;;
17818;SDS011;9034;50.284;19.310;2022-12-07T04:43:58;68.28;;;33.45;;
17818;SDS011;9034;50.284;19.310;2022-12-07T04:45:03;63.35;;;29.30;;
17818;SDS011;9034;50.284;19.310;2022-12-07T04:46:06;57.40;;;29.27;;
17818;SDS011;9034;50.284;19.310;2022-12-07T04:47:10;76.30;;;32.95;;
17818;SDS011;9034;50.284;19.310;2022-12-07T04:48:13;68.63;;;33.10;;
17818;SDS011;9034;50.284;19.310;2022-12-07T04:49:19;61.28;;;31.20;;
17818;SDS011;9034;50.284;19.310;2022-12-07T04:50:22;66.53;;;31.85;;
17818;SDS011;9034;50.284;19.310;2022-12-07T04:51:27;67.28;;;31.48;;
17818;SDS011;9034;50.284;19.310;2022-12-07T04:52:30;79.07;;;33.67;;
17818;SDS011;9034;50.284;19.310;2022-12-07T04:53:34;65.93;;;31.23;;
17818;SDS011;9034;50.284;19.310;2022-12-07T04:54:36;65.97;;;30.15;;
17818;SDS011;9034;50.284;19.310;2022-12-07T04:55:40;69.28;;;33.03;;
17818;SDS011;9034;50.284;19.310;2022-12-07T04:56:43;68.40;;;33.35;;
17818;SDS011;9034;50.284;19.310;2022-12-07T04:57:47;78.47;;;31.95;;
17818;SDS011;9034;50.284;19.310;2022-12-07T04:58:51;76.28;;;34.78;;
17818;SDS011;9034;50.284;19.310;2022-12-07T04:59:56;75.43;;;34.78;;
17818;SDS011;9034;50.284;19.310;2022-12-07T05:00:59;121.15;;;37.45;;
17818;SDS011;9034;50.284;19.310;2022-12-07T05:02:02;58.85;;;29.58;;
17818;SDS011;9034;50.284;19.310;2022-12-07T05:03:05;65.35;;;30.40;;
17818;SDS011;9034;50.284;19.310;2022-12-07T05:04:09;75.53;;;33.35;;
17818;SDS011;9034;50.284;19.310;2022-12-07T05:05:14;57.03;;;28.60;;
17818;SDS011;9034;50.284;19.310;2022-12-07T05:06:17;72.65;;;33.05;;
17818;SDS011;9034;50.284;19.310;2022-12-07T05:07:21;65.60;;;33.58;;
17818;SDS011;9034;50.284;19.310;2022-12-07T05:08:24;64.20;;;30.20;;
17818;SDS011;9034;50.284;19.310;2022-12-07T05:09:28;52.65;;;28.30;;
17818;SDS011;9034;50.284;19.310;2022-12-07T05:10:32;75.15;;;33.53;;
17818;SDS011;9034;50.284;19.310;2022-12-07T05:11:34;69.50;;;31.92;;
17818;SDS011;9034;50.284;19.310;2022-12-07T05:12:41;61.92;;;29.85;;
17818;SDS011;9034;50.284;19.310;2022-12-07T05:13:45;60.58;;;29.50;;
17818;SDS011;9034;50.284;19.310;2022-12-07T05:14:47;60.10;;;28.75;;
17818;SDS011;9034;50.284;19.310;2022-12-07T05:15:51;72.10;;;33.05;;
17818;SDS011;9034;50.284;19.310;2022-12-07T05:16:54;67.85;;;33.15;;
17818;SDS011;9034;50.284;19.310;2022-12-07T05:17:57;68.72;;;29.83;;
17818;SDS011;9034;50.284;19.310;2022-12-07T05:19:00;62.83;;;30.45;;
17818;SDS011;9034;50.284;19.310;2022-12-07T05:20:04;75.10;;;32.47;;
17818;SDS011;9034;50.284;19.310;2022-12-07T05:21:09;65.20;;;30.00;;
17818;SDS011;9034;50.284;19.310;2022-12-07T05:22:13;60.75;;;28.83;;
17818;SDS011;9034;50.284;19.310;2022-12-07T05:23:17;52.58;;;26.05;;
17818;SDS011;9034;50.284;19.310;2022-12-07T05:24:20;57.53;;;27.08;;
17818;SDS011;9034;50.284;19.310;2022-12-07T05:25:24;55.53;;;27.63;;
17818;SDS011;9034;50.284;19.310;2022-12-07T05:26:27;62.55;;;29.27;;
17818;SDS011;9034;50.284;19.310;2022-12-07T05:27:31;62.80;;;30.40;;
17818;SDS011;9034;50.284;19.310;2022-12-07T05:28:33;63.15;;;29.60;;
17818;SDS011;9034;50.284;19.310;2022-12-07T05:29:37;58.63;;;28.38;;
17818;SDS011;9034;50.284;19.310;2022-12-07T05:30:40;61.78;;;27.15;;
17818;SDS011;9034;50.284;19.310;2022-12-07T05:31:44;67.32;;;30.20;;
17818;SDS011;9034;50.284;19.310;2022-12-07T05:32:47;68.10;;;29.98;;
17818;SDS011;9034;50.284;19.310;2022-12-07T05:33:51;59.95;;;27.80;;
17818;SDS011;9034;50.284;19.310;2022-12-07T05:34:53;74.10;;;31.63;;
17818;SDS011;9034;50.284;19.310;2022-12-07T05:35:57;63.28;;;28.58;;
17818;SDS011;9034;50.284;19.310;2022-12-07T05:37:01;64.20;;;29.02;;
17818;SDS011;9034;50.284;19.310;2022-12-07T05:38:05;74.53;;;30.92;;
17818;SDS011;9034;50.284;19.310;2022-12-07T05:39:08;78.07;;;32.65;;
17818;SDS011;9034;50.284;19.310;2022-12-07T05:40:13;72.80;;;32.78;;
17818;SDS011;9034;50.284;19.310;2022-12-07T05:41:16;74.22;;;32.25;;
17818;SDS011;9034;50.284;19.310;2022-12-07T05:42:38;80.82;;;32.47;;
17818;SDS011;9034;50.284;19.310;2022-12-07T05:43:42;85.25;;;34.25;;
17818;SDS011;9034;50.284;19.310;2022-12-07T05:44:45;92.75;;;35.17;;
17818;SDS011;9034;50.284;19.310;2022-12-07T05:45:49;95.18;;;37.55;;
17818;SDS011;9034;50.284;19.310;2022-12-07T05:46:52;86.38;;;35.85;;
17818;SDS011;9034;50.284;19.310;2022-12-07T05:47:56;95.38;;;38.42;;
17818;SDS011;9034;50.284;19.310;2022-12-07T05:48:59;92.40;;;38.33;;
17818;SDS011;9034;50.284;19.310;2022-12-07T05:50:03;78.72;;;32.80;;
17818;SDS011;9034;50.284;19.310;2022-12-07T05:51:07;84.55;;;35.85;;
17818;SDS011;9034;50.284;19.310;2022-12-07T05:52:12;87.80;;;36.55;;
17818;SDS011;9034;50.284;19.310;2022-12-07T05:53:16;81.65;;;33.45;;
17818;SDS011;9034;50.284;19.310;2022-12-07T05:54:24;91.20;;;35.33;;
17818;SDS011;9034;50.284;19.310;2022-12-07T05:55:28;83.03;;;34.90;;
17818;SDS011;9034;50.284;19.310;2022-12-07T05:56:30;84.72;;;32.50;;
17818;SDS011;9034;50.284;19.310;2022-12-07T05:57:34;77.88;;;34.45;;
17818;SDS011;9034;50.284;19.310;2022-12-07T05:58:37;88.07;;;36.33;;
17818;SDS011;9034;50.284;19.310;2022-12-07T05:59:58;91.18;;;35.45;;
17818;SDS011;9034;50.284;19.310;2022-12-07T06:01:02;90.25;;;33.20;;
17818;SDS011;9034;50.284;19.310;2022-12-07T06:02:05;96.57;;;36.53;;
17818;SDS011;9034;50.284;19.310;2022-12-07T06:03:10;92.03;;;36.40;;
17818;SDS011;9034;50.284;19.310;2022-12-07T06:04:13;98.65;;;35.75;;
17818;SDS011;9034;50.284;19.310;2022-12-07T06:05:17;90.78;;;38.50;;
17818;SDS011;9034;50.284;19.310;2022-12-07T06:06:21;95.22;;;39.40;;
17818;SDS011;9034;50.284;19.310;2022-12-07T06:07:25;87.88;;;34.80;;
17818;SDS011;9034;50.284;19.310;2022-12-07T06:08:29;83.80;;;32.58;;
17818;SDS011;9034;50.284;19.310;2022-12-07T06:09:32;89.35;;;36.25;;
17818;SDS011;9034;50.284;19.310;2022-12-07T06:10:36;98.00;;;36.05;;
17818;SDS011;9034;50.284;19.310;2022-12-07T06:11:39;81.45;;;34.35;;
17818;SDS011;9034;50.284;19.310;2022-12-07T06:13:00;76.95;;;32.78;;
17818;SDS011;9034;50.284;19.310;2022-12-07T06:14:04;100.72;;;33.72;;
17818;SDS011;9034;50.284;19.310;2022-12-07T06:15:07;101.35;;;36.95;;
17818;SDS011;9034;50.284;19.310;2022-12-07T06:16:11;83.97;;;32.80;;
17818;SDS011;9034;50.284;19.310;2022-12-07T06:17:14;84.10;;;32.80;;
17818;SDS011;9034;50.284;19.310;2022-12-07T06:18:18;69.18;;;31.13;;
17818;SDS011;9034;50.284;19.310;2022-12-07T06:19:21;62.70;;;29.30;;
17818;SDS011;9034;50.284;19.310;2022-12-07T06:20:25;67.40;;;28.35;;
17818;SDS011;9034;50.284;19.310;2022-12-07T06:21:28;68.63;;;29.80;;
17818;SDS011;9034;50.284;19.310;2022-12-07T06:22:33;71.13;;;29.70;;
17818;SDS011;9034;50.284;19.310;2022-12-07T06:23:37;72.47;;;30.08;;